createdAt,value
2022-11-24T00:01:19.835Z,16.27
2022-11-24T00:03:47.320Z,21.40
2022-11-24T00:06:15.041Z,22.60
2022-11-24T00:08:42.261Z,21.27
2022-11-24T00:11:09.943Z,23.87
2022-11-24T00:13:39.172Z,22.00
2022-11-24T00:16:12.965Z,24.13
2022-11-24T00:18:39.769Z,23.60
2022-11-24T00:21:06.522Z,22.53
2022-11-24T00:26:20.857Z,22.10
2022-11-24T00:31:33.895Z,20.10
2022-11-24T00:36:45.198Z,21.53
2022-11-24T00:41:56.496Z,20.00
2022-11-24T00:44:23.105Z,20.63
2022-11-24T00:46:49.831Z,19.87
2022-11-24T00:49:16.461Z,20.10
2022-11-24T00:51:43.210Z,21.60
2022-11-24T00:54:09.802Z,22.40
2022-11-24T00:56:36.419Z,23.93
2022-11-24T00:59:03.203Z,24.30
2022-11-24T01:01:31.187Z,24.73
2022-11-24T01:03:58.751Z,24.40
2022-11-24T01:06:25.847Z,24.53
2022-11-24T01:08:52.789Z,24.17
2022-11-24T01:11:20.318Z,24.70
2022-11-24T01:13:48.368Z,23.07
2022-11-24T01:16:15.105Z,23.47
2022-11-24T01:18:41.732Z,24.33
2022-11-24T01:21:10.323Z,23.80
2022-11-24T01:23:37.173Z,26.63
2022-11-24T01:26:04.701Z,24.23
2022-11-24T01:28:31.621Z,27.03
2022-11-24T01:30:59.000Z,26.03
2022-11-24T01:33:25.788Z,24.80
2022-11-24T01:35:52.456Z,24.70
2022-11-24T01:38:19.041Z,24.13
2022-11-24T01:40:45.644Z,25.00
2022-11-24T01:46:06.856Z,24.27
2022-11-24T01:48:36.286Z,23.37
2022-11-24T01:51:13.738Z,22.87
2022-11-24T01:53:41.303Z,23.07
2022-11-24T01:56:07.943Z,22.17
2022-11-24T01:58:34.628Z,22.33
2022-11-24T02:01:01.329Z,21.80
2022-11-24T02:03:29.279Z,22.07
2022-11-24T02:06:00.560Z,22.43
2022-11-24T02:08:29.951Z,21.17
2022-11-24T02:10:56.536Z,23.33
2022-11-24T02:13:23.304Z,24.20
2022-11-24T02:18:34.019Z,23.50
2022-11-24T02:21:00.691Z,22.50
2022-11-24T02:23:47.605Z,25.73
2022-11-24T02:26:17.301Z,23.00
2022-11-24T02:28:44.000Z,23.40
2022-11-24T02:31:10.903Z,22.70
2022-11-24T02:33:37.542Z,23.80
2022-11-24T02:36:04.190Z,22.77
2022-11-24T02:38:31.583Z,24.17
2022-11-24T02:40:58.188Z,22.17
2022-11-24T02:43:24.783Z,22.80
2022-11-24T02:45:51.446Z,23.10
2022-11-24T02:51:02.254Z,23.07
2022-11-24T02:56:12.986Z,21.73
2022-11-24T02:58:39.665Z,22.37
2022-11-24T03:01:06.415Z,23.33
2022-11-24T03:03:33.105Z,22.67
2022-11-24T03:05:59.761Z,22.27
2022-11-24T03:08:26.337Z,24.30
2022-11-24T03:10:53.051Z,23.67
2022-11-24T03:16:05.993Z,22.30
2022-11-24T03:18:32.644Z,22.23
2022-11-24T03:20:59.755Z,22.60
2022-11-24T03:23:26.413Z,23.13
2022-11-24T03:25:53.053Z,21.77
2022-11-24T03:28:19.644Z,23.30
2022-11-24T03:30:48.333Z,22.13
2022-11-24T03:33:14.950Z,22.60
2022-11-24T03:35:42.262Z,20.53
2022-11-24T03:38:09.137Z,23.03
2022-11-24T03:40:36.327Z,25.30
2022-11-24T03:43:02.950Z,23.23
2022-11-24T03:45:45.411Z,22.80
2022-11-24T03:48:13.351Z,23.60
2022-11-24T03:50:39.927Z,22.67
2022-11-24T03:53:06.616Z,24.60
2022-11-24T03:55:33.695Z,23.20
2022-11-24T03:58:00.357Z,23.87
2022-11-24T04:00:26.986Z,24.23
2022-11-24T04:05:37.753Z,22.47
2022-11-24T04:08:05.481Z,23.33
2022-11-24T04:10:32.561Z,22.67
2022-11-24T04:12:59.160Z,21.87
2022-11-24T04:18:09.860Z,19.10
2022-11-24T04:23:21.297Z,18.80
2022-11-24T04:25:47.941Z,18.37
2022-11-24T04:28:14.609Z,18.07
2022-11-24T04:30:44.832Z,18.07
2022-11-24T04:33:11.850Z,18.97
2022-11-24T04:35:38.517Z,19.07
2022-11-24T04:38:05.193Z,18.77
2022-11-24T04:40:32.223Z,18.10
2022-11-24T04:42:58.889Z,16.10
2022-11-24T04:45:25.552Z,18.17
2022-11-24T04:47:52.200Z,19.03
2022-11-24T04:50:18.852Z,18.00
2022-11-24T04:52:45.474Z,17.43
2022-11-24T04:55:12.146Z,17.50
2022-11-24T04:57:38.796Z,17.47
2022-11-24T05:00:05.746Z,17.10
2022-11-24T05:02:32.385Z,17.00
2022-11-24T05:04:58.956Z,17.43
2022-11-24T05:07:25.621Z,18.93
2022-11-24T05:10:11.180Z,17.70
2022-11-24T05:12:39.619Z,19.50
2022-11-24T05:15:06.414Z,19.70
2022-11-24T05:20:18.310Z,19.27
2022-11-24T05:22:45.523Z,18.53
2022-11-24T05:25:12.873Z,19.60
2022-11-24T05:27:39.376Z,20.67
2022-11-24T05:30:06.349Z,20.80
2022-11-24T05:32:33.122Z,19.97
2022-11-24T05:35:02.280Z,19.43
2022-11-24T05:40:13.014Z,21.30
2022-11-24T05:42:47.317Z,20.63
2022-11-24T05:45:15.821Z,20.43
2022-11-24T05:47:42.429Z,21.17
2022-11-24T05:50:15.762Z,21.40
2022-11-24T05:52:42.476Z,22.03
2022-11-24T05:55:09.119Z,21.17
2022-11-24T05:57:35.895Z,20.40
2022-11-24T06:00:03.999Z,19.93
2022-11-24T06:02:39.050Z,20.63
2022-11-24T06:07:49.884Z,20.20
2022-11-24T06:10:16.959Z,22.17
2022-11-24T06:12:43.497Z,21.07
2022-11-24T06:15:11.281Z,20.27
2022-11-24T06:20:24.420Z,21.93
2022-11-24T06:22:53.778Z,21.27
2022-11-24T06:25:20.249Z,22.27
2022-11-24T06:27:46.845Z,19.87
2022-11-24T06:30:13.847Z,20.00
2022-11-24T06:32:49.088Z,21.20
2022-11-24T06:35:16.530Z,21.70
2022-11-24T06:37:43.063Z,20.23
2022-11-24T06:40:09.854Z,20.70
2022-11-24T06:42:36.583Z,21.30
2022-11-24T06:45:08.591Z,20.27
2022-11-24T06:47:35.876Z,20.33
2022-11-24T06:50:02.841Z,19.27
2022-11-24T06:52:29.340Z,19.07
2022-11-24T06:54:56.016Z,19.47
2022-11-24T07:00:08.191Z,19.60
2022-11-24T07:02:34.754Z,20.03
2022-11-24T07:05:01.353Z,20.20
2022-11-24T07:07:27.846Z,20.50
2022-11-24T07:09:54.403Z,19.37
2022-11-24T07:12:20.886Z,20.73
2022-11-24T07:14:47.448Z,21.30
2022-11-24T07:17:13.972Z,20.87
2022-11-24T07:19:40.585Z,19.43
2022-11-24T07:22:07.174Z,19.10
2022-11-24T07:24:34.089Z,19.67
2022-11-24T07:27:00.776Z,19.43
2022-11-24T07:29:27.345Z,19.37
2022-11-24T07:34:39.560Z,20.87
2022-11-24T07:37:06.304Z,19.53
2022-11-24T07:39:32.931Z,19.37
2022-11-24T07:42:00.371Z,19.33
2022-11-24T07:44:27.091Z,20.53
2022-11-24T07:46:53.612Z,19.83
2022-11-24T07:49:20.246Z,20.40
2022-11-24T07:51:46.862Z,20.00
2022-11-24T07:54:13.635Z,20.13
2022-11-24T07:56:40.417Z,19.60
2022-11-24T08:01:51.888Z,20.83
2022-11-24T08:04:18.832Z,19.57
2022-11-24T08:06:47.540Z,21.13
2022-11-24T08:09:14.456Z,20.80
2022-11-24T08:14:27.628Z,19.00
2022-11-24T08:16:54.627Z,20.00
2022-11-24T08:19:22.006Z,23.20
2022-11-24T08:21:48.638Z,19.40
2022-11-24T08:24:16.483Z,20.30
2022-11-24T08:26:43.165Z,19.77
2022-11-24T08:29:09.813Z,18.13
2022-11-24T08:31:37.750Z,20.07
2022-11-24T08:34:04.503Z,19.93
2022-11-24T08:36:31.170Z,19.60
2022-11-24T08:38:58.304Z,20.50
2022-11-24T08:41:25.323Z,20.17
2022-11-24T08:43:51.909Z,18.03
2022-11-24T08:49:02.633Z,19.50
2022-11-24T08:51:29.261Z,20.67
2022-11-24T08:53:59.252Z,18.97
2022-11-24T08:56:26.210Z,21.17
2022-11-24T08:58:53.326Z,21.57
2022-11-24T09:01:20.069Z,19.80
2022-11-24T09:03:50.622Z,20.60
2022-11-24T09:06:18.520Z,20.90
2022-11-24T09:08:45.010Z,20.60
2022-11-24T09:11:12.827Z,20.57
2022-11-24T09:13:39.683Z,20.83
2022-11-24T09:16:08.168Z,21.00
2022-11-24T09:18:34.784Z,19.60
2022-11-24T09:23:52.924Z,19.77
2022-11-24T09:29:13.769Z,20.23
2022-11-24T09:31:40.412Z,19.67
2022-11-24T09:34:07.824Z,19.83
2022-11-24T09:36:34.563Z,19.60
2022-11-24T09:39:01.204Z,18.83
2022-11-24T09:41:30.927Z,21.47
2022-11-24T09:44:00.682Z,20.00
2022-11-24T09:46:33.706Z,20.93
2022-11-24T09:49:00.731Z,21.93
2022-11-24T09:51:28.865Z,21.07
2022-11-24T09:53:57.114Z,20.90
2022-11-24T09:56:27.572Z,24.07
2022-11-24T09:59:03.505Z,22.43
2022-11-24T10:01:30.796Z,22.70
2022-11-24T10:04:02.566Z,22.03
2022-11-24T10:06:39.581Z,21.73
2022-11-24T10:09:09.279Z,20.97
2022-11-24T10:14:26.992Z,20.87
2022-11-24T10:19:45.247Z,20.17
2022-11-24T10:24:59.188Z,19.57
2022-11-24T10:27:27.529Z,18.70
2022-11-24T10:29:57.166Z,20.77
2022-11-24T10:32:23.822Z,20.60
2022-11-24T10:34:50.731Z,19.97
2022-11-24T10:37:20.811Z,20.30
2022-11-24T10:39:54.753Z,18.63
2022-11-24T10:42:26.458Z,20.27
2022-11-24T10:44:59.948Z,21.13
2022-11-24T10:47:26.757Z,24.80
2022-11-24T10:50:04.250Z,22.20
2022-11-24T10:52:32.758Z,22.13
2022-11-24T10:55:00.748Z,20.97
2022-11-24T10:57:28.674Z,20.10
2022-11-24T10:59:55.783Z,20.57
2022-11-24T11:02:38.797Z,20.63
2022-11-24T11:05:23.569Z,20.90
2022-11-24T11:07:50.463Z,20.03
2022-11-24T11:10:18.507Z,18.70
2022-11-24T11:12:45.871Z,20.23
2022-11-24T11:15:22.998Z,18.93
2022-11-24T11:17:50.555Z,20.50
2022-11-24T11:20:18.081Z,21.37
2022-11-24T11:22:45.533Z,20.27
2022-11-24T11:25:15.222Z,20.77
2022-11-24T11:27:41.861Z,20.77
2022-11-24T11:35:51.082Z,21.03
2022-11-24T11:38:17.689Z,19.23
2022-11-24T11:40:44.478Z,19.57
2022-11-24T11:43:30.856Z,20.13
2022-11-24T11:46:02.564Z,22.97
2022-11-24T11:48:40.625Z,21.43
2022-11-24T11:51:27.221Z,20.67
2022-11-24T11:54:03.412Z,22.00
2022-11-24T11:56:30.705Z,20.53
2022-11-24T11:59:18.143Z,19.40
2022-11-24T12:02:00.177Z,21.83
2022-11-24T12:04:44.433Z,20.40
2022-11-24T12:07:17.026Z,22.77
2022-11-24T12:09:58.777Z,23.30
2022-11-24T12:12:25.320Z,21.90
2022-11-24T12:14:51.825Z,20.60
2022-11-24T12:17:36.859Z,21.43
2022-11-24T12:20:07.206Z,20.77
2022-11-24T12:22:36.877Z,20.00
2022-11-24T12:25:14.168Z,20.60
2022-11-24T12:27:43.575Z,22.60
2022-11-24T12:30:16.432Z,21.73
2022-11-24T12:32:55.082Z,20.80
2022-11-24T12:35:30.730Z,21.27
2022-11-24T12:38:00.404Z,20.80
2022-11-24T12:40:47.249Z,21.13
2022-11-24T12:43:32.655Z,20.70
2022-11-24T12:46:02.386Z,22.33
2022-11-24T12:48:32.424Z,22.70
2022-11-24T12:50:59.256Z,22.50
2022-11-24T12:53:27.431Z,21.73
2022-11-24T12:55:54.922Z,22.37
2022-11-24T12:58:24.508Z,22.10
2022-11-24T13:00:57.163Z,23.00
2022-11-24T13:03:36.121Z,23.40
2022-11-24T13:06:08.510Z,21.13
2022-11-24T13:08:35.268Z,21.13
2022-11-24T13:11:20.801Z,21.30
2022-11-24T13:14:00.204Z,22.27
2022-11-24T13:16:59.468Z,21.80
2022-11-24T13:19:26.698Z,22.63
2022-11-24T13:22:01.141Z,22.03
2022-11-24T13:24:30.749Z,22.57
2022-11-24T13:27:26.632Z,22.67
2022-11-24T13:29:53.402Z,22.17
2022-11-24T13:32:21.014Z,20.73
2022-11-24T13:34:49.738Z,21.47
2022-11-24T13:37:31.167Z,20.80
2022-11-24T13:40:11.467Z,22.83
2022-11-24T13:42:57.350Z,21.57
2022-11-24T13:45:54.067Z,24.00
2022-11-24T13:48:21.902Z,24.70
2022-11-24T13:50:55.059Z,26.03
2022-11-24T13:53:21.591Z,23.63
2022-11-24T13:58:59.528Z,24.67
2022-11-24T14:01:27.021Z,26.80
2022-11-24T14:07:06.981Z,25.60
2022-11-24T14:09:42.514Z,26.40
2022-11-24T14:12:12.170Z,25.23
2022-11-24T14:14:42.002Z,24.40
2022-11-24T14:20:16.299Z,24.13
2022-11-24T14:22:42.917Z,24.00
2022-11-24T14:25:32.987Z,22.03
2022-11-24T14:28:00.041Z,23.33
2022-11-24T14:30:26.969Z,24.23
2022-11-24T14:32:57.050Z,24.50
2022-11-24T14:35:27.424Z,23.87
2022-11-24T14:37:54.071Z,24.93
2022-11-24T14:43:29.409Z,23.07
2022-11-24T14:45:57.809Z,25.77
2022-11-24T14:48:28.145Z,26.27
2022-11-24T14:50:55.066Z,24.57
2022-11-24T14:56:06.513Z,25.03
2022-11-24T15:01:27.525Z,23.60
2022-11-24T15:04:26.551Z,24.77
2022-11-24T15:07:04.056Z,26.57
2022-11-24T15:09:39.875Z,24.57
2022-11-24T15:12:10.664Z,24.43
2022-11-24T15:17:48.072Z,23.37
2022-11-24T15:20:23.123Z,24.37
2022-11-24T15:22:52.497Z,24.57
2022-11-24T15:25:22.297Z,23.60
2022-11-24T15:27:48.984Z,25.07
2022-11-24T15:30:15.843Z,24.17
2022-11-24T15:33:02.777Z,23.73
2022-11-24T15:35:30.590Z,23.17
2022-11-24T15:37:57.191Z,25.37
2022-11-24T15:40:23.974Z,25.23
2022-11-24T15:42:52.295Z,23.60
2022-11-24T15:45:19.667Z,24.40
2022-11-24T15:47:46.449Z,24.10
2022-11-24T15:50:13.537Z,26.67
2022-11-24T15:52:40.246Z,41.03
2022-11-24T15:55:07.240Z,28.70
2022-11-24T15:57:33.770Z,30.17
2022-11-24T16:00:00.359Z,32.10
2022-11-24T16:05:11.308Z,28.77
2022-11-24T16:07:38.036Z,33.47
2022-11-24T16:10:05.198Z,36.83
2022-11-24T16:12:31.790Z,34.83
2022-11-24T16:14:58.399Z,28.63
2022-11-24T16:17:24.946Z,25.53
2022-11-24T16:20:00.245Z,27.33
2022-11-24T16:22:27.633Z,27.27
2022-11-24T16:24:54.181Z,27.63
2022-11-24T16:27:20.958Z,28.27
2022-11-24T16:29:47.573Z,26.73
2022-11-24T16:32:14.214Z,27.30
2022-11-24T16:34:41.685Z,26.77
2022-11-24T16:37:08.457Z,29.23
2022-11-24T16:39:35.176Z,25.10
2022-11-24T16:42:03.408Z,27.87
2022-11-24T16:44:30.899Z,25.50
2022-11-24T16:46:57.499Z,26.60
2022-11-24T16:49:24.210Z,26.00
2022-11-24T16:51:51.326Z,26.50
2022-11-24T16:54:18.328Z,25.73
2022-11-24T16:56:46.775Z,24.93
2022-11-24T16:59:13.804Z,25.93
2022-11-24T17:01:40.845Z,26.47
2022-11-24T17:04:12.444Z,24.27
2022-11-24T17:09:25.182Z,26.07
2022-11-24T17:11:51.898Z,26.53
2022-11-24T17:14:19.724Z,25.90
2022-11-24T17:16:46.339Z,24.97
2022-11-24T17:19:14.201Z,26.80
2022-11-24T17:21:40.827Z,28.33
2022-11-24T17:24:08.859Z,26.33
2022-11-24T17:26:35.742Z,26.57
2022-11-24T17:29:02.342Z,27.93
2022-11-24T17:31:29.046Z,28.40
2022-11-24T17:33:57.901Z,28.07
2022-11-24T17:36:24.907Z,46.20
2022-11-24T17:38:51.906Z,29.13
2022-11-24T17:41:18.895Z,29.37
2022-11-24T17:43:51.965Z,35.50
2022-11-24T17:46:18.811Z,33.07
2022-11-24T17:48:46.830Z,31.93
2022-11-24T17:51:14.305Z,31.07
2022-11-24T17:53:41.920Z,35.73
2022-11-24T17:56:09.011Z,36.90
2022-11-24T17:58:41.302Z,43.67
2022-11-24T18:01:10.174Z,35.63
2022-11-24T18:03:38.396Z,35.60
2022-11-24T18:06:11.566Z,32.50
2022-11-24T18:08:38.913Z,42.03
2022-11-24T18:11:16.076Z,32.17
2022-11-24T18:14:00.920Z,34.93
2022-11-24T18:16:31.205Z,30.00
2022-11-24T18:19:07.911Z,29.47
2022-11-24T18:24:24.109Z,33.40
2022-11-24T18:26:53.005Z,36.03
2022-11-24T18:29:19.731Z,30.23
2022-11-24T18:31:46.666Z,30.53
2022-11-24T18:34:13.288Z,28.57
2022-11-24T18:36:39.819Z,28.53
2022-11-24T18:39:06.991Z,29.03
2022-11-24T18:41:33.807Z,29.87
2022-11-24T18:44:03.540Z,30.40
2022-11-24T18:46:30.499Z,31.13
2022-11-24T18:48:58.410Z,32.57
2022-11-24T18:51:25.289Z,32.83
2022-11-24T18:53:54.277Z,31.77
2022-11-24T18:56:21.057Z,32.83
2022-11-24T18:58:47.828Z,31.47
2022-11-24T19:01:18.555Z,32.63
2022-11-24T19:03:49.539Z,31.73
2022-11-24T19:06:28.587Z,30.93
2022-11-24T19:08:55.529Z,31.00
2022-11-24T19:11:22.983Z,30.53
2022-11-24T19:13:50.214Z,31.70
2022-11-24T19:16:17.196Z,29.43
2022-11-24T19:18:46.485Z,29.57
2022-11-24T19:21:20.297Z,26.33
2022-11-24T19:23:46.938Z,27.37
2022-11-24T19:26:14.947Z,27.00
2022-11-24T19:31:27.091Z,25.67
2022-11-24T19:33:55.350Z,25.00
2022-11-24T19:36:22.717Z,25.40
2022-11-24T19:38:50.777Z,23.73
2022-11-24T19:41:20.672Z,24.90
2022-11-24T19:43:47.784Z,24.77
2022-11-24T19:46:15.289Z,23.27
2022-11-24T19:51:31.349Z,25.50
2022-11-24T19:56:42.585Z,25.30
2022-11-24T19:59:09.795Z,25.90
2022-11-24T20:01:37.472Z,24.77
2022-11-24T20:04:08.323Z,28.30
2022-11-24T20:06:39.294Z,28.97
2022-11-24T20:09:07.490Z,29.23
2022-11-24T20:11:34.109Z,28.83
2022-11-24T20:14:00.686Z,27.30
2022-11-24T20:16:33.210Z,29.60
2022-11-24T20:19:00.605Z,29.53
2022-11-24T20:21:34.004Z,27.37
2022-11-24T20:24:01.549Z,29.83
2022-11-24T20:26:29.291Z,28.10
2022-11-24T20:28:57.596Z,30.30
2022-11-24T20:31:29.063Z,28.90
2022-11-24T20:33:55.821Z,28.73
2022-11-24T20:36:23.300Z,32.60
2022-11-24T20:38:50.456Z,30.60
2022-11-24T20:41:21.339Z,32.50
2022-11-24T20:43:48.103Z,32.10
2022-11-24T20:46:16.267Z,31.50
2022-11-24T20:48:43.341Z,38.07
2022-11-24T20:51:10.961Z,37.30
2022-11-24T20:53:37.721Z,38.20
2022-11-24T20:56:07.635Z,37.93
2022-11-24T20:58:34.625Z,36.57
2022-11-24T21:01:09.158Z,38.00
2022-11-24T21:03:41.248Z,35.90
2022-11-24T21:06:09.779Z,37.67
2022-11-24T21:08:36.828Z,37.67
2022-11-24T21:11:07.578Z,37.07
2022-11-24T21:13:34.521Z,35.93
2022-11-24T21:16:01.575Z,38.27
2022-11-24T21:18:28.207Z,34.60
2022-11-24T21:20:55.003Z,36.80
2022-11-24T21:23:21.813Z,36.97
2022-11-24T21:25:48.591Z,37.23
2022-11-24T21:28:15.351Z,37.80
2022-11-24T21:30:41.921Z,35.93
2022-11-24T21:33:09.241Z,38.00
2022-11-24T21:35:36.427Z,37.23
2022-11-24T21:38:03.366Z,36.10
2022-11-24T21:40:32.090Z,36.80
2022-11-24T21:45:44.854Z,37.83
2022-11-24T21:48:11.482Z,37.70
2022-11-24T21:50:38.010Z,41.37
2022-11-24T21:53:09.497Z,38.20
2022-11-24T21:55:36.245Z,39.30
2022-11-24T21:58:05.805Z,37.90
2022-11-24T22:00:32.991Z,38.83
2022-11-24T22:05:52.491Z,39.83
2022-11-24T22:08:19.042Z,40.47
2022-11-24T22:10:45.520Z,40.07
2022-11-24T22:13:12.071Z,40.93
2022-11-24T22:18:23.745Z,37.40
2022-11-24T22:20:56.498Z,37.40
2022-11-24T22:23:23.187Z,37.67
2022-11-24T22:25:49.726Z,36.43
2022-11-24T22:28:16.361Z,35.37
2022-11-24T22:30:42.901Z,36.50
2022-11-24T22:33:09.474Z,36.10
2022-11-24T22:38:19.958Z,34.77
2022-11-24T22:40:46.554Z,36.13
2022-11-24T22:43:13.115Z,37.10
2022-11-24T22:45:39.655Z,36.00
2022-11-24T22:48:06.365Z,35.87
2022-11-24T22:50:33.192Z,35.80
2022-11-24T22:52:59.730Z,35.30
2022-11-24T22:55:26.511Z,35.17
2022-11-24T22:57:56.813Z,37.13
2022-11-24T23:00:23.808Z,36.67
2022-11-24T23:02:50.389Z,34.03
2022-11-24T23:05:20.723Z,34.87
2022-11-24T23:07:47.866Z,33.63
2022-11-24T23:10:15.505Z,33.77
2022-11-24T23:12:42.014Z,34.43
2022-11-24T23:15:08.739Z,33.83
2022-11-24T23:20:19.054Z,33.43
2022-11-24T23:22:45.601Z,32.40
2022-11-24T23:25:12.116Z,33.10
2022-11-24T23:27:38.623Z,32.27
2022-11-24T23:30:05.563Z,31.87
2022-11-24T23:32:32.045Z,30.13
2022-11-24T23:34:58.561Z,31.50
2022-11-24T23:37:39.302Z,29.70
2022-11-24T23:40:11.812Z,31.27
2022-11-24T23:42:38.391Z,29.00
2022-11-24T23:45:05.896Z,28.73
2022-11-24T23:47:32.385Z,28.03
2022-11-24T23:49:58.974Z,27.90
2022-11-24T23:52:25.465Z,27.40
2022-11-24T23:54:51.935Z,28.30
2022-11-24T23:57:18.428Z,28.23
2022-11-24T23:59:44.999Z,27.87
